createdAt,value
2018-04-24T00:00:18.297Z,10.10
2018-04-24T00:02:45.724Z,10.10
2018-04-24T00:05:13.926Z,10.10
2018-04-24T00:07:41.365Z,10.00
2018-04-24T00:10:09.566Z,10.00
2018-04-24T00:12:36.992Z,9.90
2018-04-24T00:15:04.423Z,9.90
2018-04-24T00:17:31.865Z,9.80
2018-04-24T00:19:59.306Z,9.80
2018-04-24T00:22:26.726Z,9.70
2018-04-24T00:24:54.918Z,9.60
2018-04-24T00:27:22.351Z,9.50
2018-04-24T00:29:49.776Z,9.50
2018-04-24T00:32:17.194Z,9.50
2018-04-24T00:34:44.622Z,9.60
2018-04-24T00:37:12.817Z,9.70
2018-04-24T00:39:40.258Z,9.70
2018-04-24T00:42:07.669Z,9.80
2018-04-24T00:44:35.345Z,9.90
2018-04-24T00:47:02.770Z,9.90
2018-04-24T00:49:30.194Z,9.90
2018-04-24T00:51:58.399Z,9.90
2018-04-24T00:54:25.821Z,9.90
2018-04-24T00:56:54.371Z,9.80
2018-04-24T00:59:21.793Z,9.80
2018-04-24T01:01:49.221Z,9.70
2018-04-24T01:04:17.408Z,9.70
2018-04-24T01:06:45.626Z,9.70
2018-04-24T01:09:13.029Z,9.60
2018-04-24T01:11:41.231Z,9.60
2018-04-24T01:14:08.652Z,9.60
2018-04-24T01:16:36.088Z,9.60
2018-04-24T01:19:03.508Z,9.60
2018-04-24T01:21:30.943Z,9.60
2018-04-24T01:23:59.143Z,9.50
2018-04-24T01:26:26.587Z,9.50
2018-04-24T01:28:54.006Z,9.50
2018-04-24T01:31:21.455Z,9.50
2018-04-24T01:33:48.885Z,9.50
2018-04-24T01:36:17.090Z,9.40
2018-04-24T01:38:44.522Z,9.40
2018-04-24T01:41:11.951Z,9.40
2018-04-24T01:43:39.374Z,9.30
2018-04-24T01:46:06.803Z,9.30
2018-04-24T01:48:34.243Z,9.20
2018-04-24T01:51:01.665Z,9.20
2018-04-24T01:53:30.016Z,9.20
2018-04-24T01:55:57.425Z,9.20
2018-04-24T01:58:24.846Z,9.20
2018-04-24T02:00:53.055Z,9.20
2018-04-24T02:03:20.481Z,9.10
2018-04-24T02:05:47.915Z,9.10
2018-04-24T02:08:15.367Z,9.10
2018-04-24T02:10:42.805Z,9.20
2018-04-24T02:13:10.568Z,9.30
2018-04-24T02:15:37.989Z,9.40
2018-04-24T02:18:06.181Z,9.30
2018-04-24T02:20:33.608Z,9.30
2018-04-24T02:23:01.035Z,9.30
2018-04-24T02:25:28.467Z,9.20
2018-04-24T02:27:55.894Z,9.10
2018-04-24T02:30:24.104Z,9.10
2018-04-24T02:32:51.561Z,9.10
2018-04-24T02:35:19.020Z,9.10
2018-04-24T02:37:46.427Z,9.10
2018-04-24T02:40:14.633Z,9.10
2018-04-24T02:42:42.064Z,9.10
2018-04-24T02:45:10.253Z,9.10
2018-04-24T02:47:37.689Z,9.10
2018-04-24T02:50:05.899Z,9.10
2018-04-24T02:52:33.326Z,9.00
2018-04-24T02:55:01.551Z,9.20
2018-04-24T02:57:28.962Z,9.20
2018-04-24T02:59:57.179Z,9.40
2018-04-24T03:02:24.627Z,9.30
2018-04-24T03:04:52.051Z,9.40
2018-04-24T03:07:20.250Z,9.50
2018-04-24T03:09:47.704Z,9.40
2018-04-24T03:12:15.882Z,9.40
2018-04-24T03:14:43.317Z,9.40
2018-04-24T03:17:11.523Z,9.40
2018-04-24T03:19:38.965Z,9.40
2018-04-24T03:22:07.174Z,9.50
2018-04-24T03:24:34.623Z,9.50
2018-04-24T03:27:02.054Z,9.50
2018-04-24T03:29:30.271Z,9.50
2018-04-24T03:31:57.710Z,9.50
2018-04-24T03:34:25.150Z,9.60
2018-04-24T03:36:52.594Z,9.60
2018-04-24T03:39:20.024Z,9.70
2018-04-24T03:41:47.459Z,9.70
2018-04-24T03:44:14.886Z,9.70
2018-04-24T03:46:42.363Z,9.60
2018-04-24T03:49:09.770Z,9.60
2018-04-24T03:51:37.198Z,9.60
2018-04-24T03:54:04.630Z,9.60
2018-04-24T03:56:32.266Z,9.60
2018-04-24T03:59:00.468Z,9.70
2018-04-24T04:01:27.890Z,9.60
2018-04-24T04:03:56.117Z,9.60
2018-04-24T04:06:23.530Z,9.50
2018-04-24T04:08:51.717Z,9.40
2018-04-24T04:11:19.149Z,9.40
2018-04-24T04:13:47.359Z,9.30
2018-04-24T04:16:15.010Z,9.30
2018-04-24T04:18:54.311Z,9.30
2018-04-24T04:21:33.706Z,9.40
2018-04-24T04:24:13.011Z,9.40
2018-04-24T04:26:41.217Z,9.50
2018-04-24T04:29:08.646Z,9.50
2018-04-24T04:31:36.088Z,9.60
2018-04-24T04:34:04.287Z,9.70
2018-04-24T04:36:31.727Z,9.70
2018-04-24T04:39:53.704Z,9.70
2018-04-24T04:42:21.167Z,9.70
2018-04-24T04:44:49.873Z,9.70
2018-04-24T04:47:17.334Z,9.80
2018-04-24T04:49:44.786Z,9.90
2018-04-24T04:52:12.245Z,9.90
2018-04-24T04:54:39.699Z,10.00
2018-04-24T04:57:07.186Z,10.00
2018-04-24T04:59:34.615Z,10.00
2018-04-24T05:02:02.064Z,10.10
2018-04-24T05:04:29.534Z,10.10
2018-04-24T05:06:56.977Z,10.10
2018-04-24T05:09:24.473Z,10.10
2018-04-24T05:11:51.941Z,10.20
2018-04-24T05:14:20.154Z,10.20
2018-04-24T05:16:47.606Z,10.20
2018-04-24T05:19:15.058Z,10.20
2018-04-24T05:21:42.496Z,10.10
2018-04-24T05:24:10.734Z,10.20
2018-04-24T05:26:38.299Z,10.10
2018-04-24T05:29:05.696Z,10.20
2018-04-24T05:31:33.098Z,10.20
2018-04-24T05:34:00.542Z,10.40
2018-04-24T05:36:27.996Z,10.60
2018-04-24T05:38:55.466Z,10.80
2018-04-24T05:41:22.923Z,11.00
2018-04-24T05:43:50.388Z,11.10
2018-04-24T05:46:17.841Z,11.10
2018-04-24T05:48:45.298Z,11.20
2018-04-24T05:51:12.746Z,11.30
2018-04-24T05:53:40.212Z,11.40
2018-04-24T05:56:07.665Z,11.50
2018-04-24T05:58:35.141Z,11.60
2018-04-24T06:01:03.350Z,11.80
2018-04-24T06:03:30.791Z,11.80
2018-04-24T06:05:58.257Z,12.00
2018-04-24T06:08:25.784Z,12.10
2018-04-24T06:10:53.172Z,12.20
2018-04-24T06:13:20.626Z,12.30
2018-04-24T06:15:48.085Z,12.50
2018-04-24T06:18:15.535Z,12.70
2018-04-24T06:20:43.010Z,13.00
2018-04-24T06:23:10.471Z,13.20
2018-04-24T06:25:37.904Z,13.50
2018-04-24T06:28:05.811Z,13.90
2018-04-24T06:30:34.019Z,14.50
2018-04-24T06:33:01.476Z,14.40
2018-04-24T06:35:28.927Z,14.60
2018-04-24T06:37:56.383Z,14.70
2018-04-24T06:40:23.820Z,14.80
2018-04-24T06:42:51.288Z,14.90
2018-04-24T06:45:18.750Z,14.90
2018-04-24T06:47:46.217Z,15.00
2018-04-24T06:50:13.658Z,15.20
2018-04-24T06:52:41.113Z,15.50
2018-04-24T06:55:08.655Z,15.70
2018-04-24T06:57:36.028Z,16.00
2018-04-24T07:00:03.475Z,16.20
2018-04-24T07:02:30.930Z,16.40
2018-04-24T07:09:36.141Z,16.40
2018-04-24T07:12:03.577Z,16.10
2018-04-24T07:14:31.037Z,16.00
2018-04-24T07:16:58.569Z,15.80
2018-04-24T07:19:25.915Z,15.90
2018-04-24T07:21:53.373Z,16.10
2018-04-24T07:24:20.919Z,16.40
2018-04-24T07:26:48.372Z,16.80
2018-04-24T07:29:15.817Z,17.10
2018-04-24T07:31:43.264Z,17.40
2018-04-24T07:34:10.721Z,17.70
2018-04-24T07:36:38.162Z,18.00
2018-04-24T07:39:06.389Z,18.20
2018-04-24T07:41:33.833Z,18.10
2018-04-24T07:44:01.299Z,18.40
2018-04-24T07:46:28.822Z,18.50
2018-04-24T07:48:56.189Z,18.90
2018-04-24T07:51:23.665Z,19.10
2018-04-24T07:53:51.105Z,19.40
2018-04-24T07:56:18.541Z,19.70
2018-04-24T07:58:45.992Z,20.20
2018-04-24T08:01:13.452Z,20.50
2018-04-24T08:03:40.912Z,20.60
2018-04-24T08:06:08.369Z,20.70
2018-04-24T08:10:54.699Z,20.90
2018-04-24T08:13:22.133Z,20.80
2018-04-24T08:15:50.356Z,20.80
2018-04-24T08:18:17.788Z,20.80
2018-04-24T08:20:45.253Z,20.80
2018-04-24T08:23:12.694Z,20.70
2018-04-24T08:25:40.158Z,20.70
2018-04-24T08:28:07.620Z,20.60
2018-04-24T08:30:35.060Z,20.70
2018-04-24T08:33:02.526Z,20.80
2018-04-24T08:35:29.982Z,20.70
2018-04-24T08:37:57.448Z,20.60
2018-04-24T08:40:24.888Z,20.80
2018-04-24T08:42:53.128Z,21.50
2018-04-24T08:45:20.587Z,21.40
2018-04-24T08:47:48.028Z,22.00
2018-04-24T08:50:15.484Z,22.20
2018-04-24T08:52:42.953Z,22.10
2018-04-24T08:55:10.401Z,21.70
2018-04-24T08:57:37.852Z,21.50
2018-04-24T09:00:05.298Z,21.40
2018-04-24T09:02:32.766Z,21.20
2018-04-24T09:05:00.210Z,20.80
2018-04-24T09:07:27.657Z,20.40
2018-04-24T09:09:55.108Z,20.40
2018-04-24T09:12:22.576Z,20.50
2018-04-24T09:14:50.035Z,20.70
2018-04-24T09:17:17.492Z,21.30
2018-04-24T09:19:44.940Z,21.90
2018-04-24T09:24:14.749Z,22.60
2018-04-24T09:26:42.964Z,22.80
2018-04-24T09:29:10.403Z,22.80
2018-04-24T09:31:43.842Z,23.00
2018-04-24T09:34:11.278Z,23.10
2018-04-24T09:36:38.737Z,23.30
2018-04-24T09:39:07.848Z,23.30
2018-04-24T09:41:35.193Z,23.30
2018-04-24T09:44:02.681Z,23.30
2018-04-24T09:46:30.121Z,23.20
2018-04-24T09:48:58.431Z,23.50
2018-04-24T09:51:25.854Z,23.50
2018-04-24T09:53:53.267Z,23.50
2018-04-24T09:56:20.731Z,23.10
2018-04-24T09:58:48.181Z,23.20
2018-04-24T10:01:15.642Z,23.40
2018-04-24T10:03:43.099Z,23.90
2018-04-24T10:06:10.561Z,24.20
2018-04-24T10:08:38.058Z,24.30
2018-04-24T10:11:05.522Z,24.00
2018-04-24T10:13:32.988Z,24.00
2018-04-24T10:16:00.418Z,24.20
2018-04-24T10:18:27.862Z,24.30
2018-04-24T10:20:56.083Z,24.30
2018-04-24T10:23:23.538Z,24.30
2018-04-24T10:25:50.981Z,24.40
2018-04-24T10:28:18.449Z,24.50
2018-04-24T10:30:45.910Z,24.50
2018-04-24T10:33:13.360Z,24.70
2018-04-24T10:35:40.836Z,24.90
2018-04-24T10:38:08.276Z,25.20
2018-04-24T10:40:35.736Z,25.30
2018-04-24T10:43:03.186Z,25.60
2018-04-24T10:45:30.633Z,25.80
2018-04-24T10:47:58.097Z,26.00
2018-04-24T10:50:25.541Z,25.80
2018-04-24T10:52:53.001Z,25.20
2018-04-24T10:55:20.457Z,25.10
2018-04-24T10:57:47.915Z,25.30
2018-04-24T11:00:15.370Z,25.10
2018-04-24T11:02:42.828Z,24.90
2018-04-24T11:05:10.264Z,24.90
2018-04-24T11:07:37.706Z,25.00
2018-04-24T11:10:05.154Z,25.40
2018-04-24T11:12:33.354Z,26.10
2018-04-24T11:15:00.808Z,26.10
2018-04-24T11:17:28.256Z,26.40
2018-04-24T11:19:55.714Z,26.60
2018-04-24T11:22:23.173Z,26.80
2018-04-24T11:24:50.653Z,26.60
2018-04-24T11:27:18.117Z,26.40
2018-04-24T11:29:45.566Z,26.50
2018-04-24T11:32:13.816Z,26.30
2018-04-24T11:34:41.276Z,26.30
2018-04-24T11:37:08.713Z,26.20
2018-04-24T11:39:36.161Z,26.20
2018-04-24T11:42:03.608Z,26.20
2018-04-24T11:44:31.848Z,26.40
2018-04-24T11:46:59.294Z,26.40
2018-04-24T11:49:26.751Z,26.50
2018-04-24T11:51:54.207Z,26.60
2018-04-24T11:54:21.647Z,26.80
2018-04-24T11:56:49.108Z,27.00
2018-04-24T11:59:16.569Z,27.10
2018-04-24T12:01:44.017Z,27.00
2018-04-24T12:04:11.478Z,27.10
2018-04-24T12:06:38.929Z,27.00
2018-04-24T12:09:06.393Z,27.10
2018-04-24T12:11:33.858Z,27.30
2018-04-24T12:14:01.303Z,27.40
2018-04-24T12:16:28.754Z,27.10
2018-04-24T12:18:56.213Z,26.70
2018-04-24T12:21:23.669Z,26.80
2018-04-24T12:23:51.147Z,27.00
2018-04-24T12:26:19.353Z,27.20
2018-04-24T12:28:46.799Z,27.20
2018-04-24T12:31:14.266Z,27.10
2018-04-24T12:33:41.705Z,27.20
2018-04-24T12:36:09.157Z,27.30
2018-04-24T12:38:36.622Z,27.10
2018-04-24T12:41:04.069Z,27.10
2018-04-24T12:43:31.500Z,27.20
2018-04-24T12:45:59.737Z,27.00
2018-04-24T12:48:27.946Z,26.90
2018-04-24T12:50:56.166Z,26.50
2018-04-24T12:53:23.638Z,26.60
2018-04-24T12:55:51.094Z,26.60
2018-04-24T12:58:18.559Z,27.00
2018-04-24T13:01:32.451Z,27.40
2018-04-24T13:03:59.909Z,27.50
2018-04-24T13:06:27.368Z,27.10
2018-04-24T13:08:54.831Z,27.30
2018-04-24T13:11:22.284Z,27.40
2018-04-24T13:26:03.276Z,27.70
2018-04-24T13:28:30.720Z,27.50
2018-04-24T13:30:58.161Z,27.30
2018-04-24T13:33:25.624Z,27.40
2018-04-24T13:35:53.086Z,27.60
2018-04-24T13:38:20.545Z,27.60
2018-04-24T13:40:47.993Z,27.40
2018-04-24T13:45:43.474Z,27.30
2018-04-24T13:48:10.953Z,27.50
2018-04-24T13:50:38.389Z,28.10
2018-04-24T13:53:05.854Z,28.60
2018-04-24T13:55:33.322Z,29.00
2018-04-24T13:58:00.761Z,29.40
2018-04-24T14:00:28.201Z,29.70
2018-04-24T14:02:56.428Z,29.60
2018-04-24T14:05:23.910Z,29.50
2018-04-24T14:07:51.367Z,29.90
2018-04-24T14:10:18.814Z,29.90
2018-04-24T14:12:46.252Z,29.90
2018-04-24T14:15:14.525Z,29.90
2018-04-24T14:17:42.028Z,29.90
2018-04-24T14:20:09.484Z,29.50
2018-04-24T14:22:36.927Z,29.20
2018-04-24T14:25:04.414Z,29.40
2018-04-24T14:27:31.855Z,29.50
2018-04-24T14:29:59.312Z,29.80
2018-04-24T14:32:26.768Z,29.90
2018-04-24T14:34:54.973Z,30.00
2018-04-24T14:37:23.179Z,29.90
2018-04-24T14:39:50.638Z,29.90
2018-04-24T14:42:21.919Z,29.80
2018-04-24T14:44:49.373Z,30.00
2018-04-24T14:47:16.840Z,29.80
2018-04-24T14:49:44.298Z,29.40
2018-04-24T14:52:11.820Z,29.20
2018-04-24T14:54:39.251Z,28.90
2018-04-24T14:57:06.704Z,28.60
2018-04-24T14:59:34.917Z,28.40
2018-04-24T15:02:02.384Z,28.40
2018-04-24T15:04:29.842Z,28.80
2018-04-24T15:06:57.287Z,28.90
2018-04-24T15:09:25.051Z,29.20
2018-04-24T15:11:53.737Z,29.80
2018-04-24T15:14:21.244Z,29.80
2018-04-24T15:16:49.465Z,30.00
2018-04-24T15:19:16.917Z,30.00
2018-04-24T15:21:44.353Z,29.90
2018-04-24T15:24:11.827Z,29.60
2018-04-24T15:26:39.275Z,29.80
2018-04-24T15:29:06.753Z,29.90
2018-04-24T15:31:34.194Z,30.20
2018-04-24T15:34:01.671Z,30.30
2018-04-24T15:36:30.119Z,29.90
2018-04-24T15:38:57.545Z,29.50
2018-04-24T15:41:25.778Z,29.20
2018-04-24T15:43:54.174Z,29.20
2018-04-24T15:46:21.631Z,29.30
2018-04-24T15:48:49.069Z,29.40
2018-04-24T15:51:16.523Z,29.40
2018-04-24T15:53:44.047Z,29.60
2018-04-24T15:56:11.504Z,30.00
2018-04-24T15:58:38.944Z,30.30
2018-04-24T16:01:06.717Z,30.70
2018-04-24T16:03:34.185Z,30.60
2018-04-24T16:06:01.626Z,30.20
2018-04-24T16:08:29.074Z,29.80
2018-04-24T16:10:56.531Z,29.70
2018-04-24T16:13:23.976Z,29.80
2018-04-24T16:15:51.411Z,29.70
2018-04-24T16:18:19.685Z,29.80
2018-04-24T16:20:47.066Z,29.80
2018-04-24T16:23:14.531Z,29.80
2018-04-24T16:25:41.994Z,30.00
2018-04-24T16:28:09.448Z,29.80
2018-04-24T16:30:36.898Z,29.60
2018-04-24T16:33:04.349Z,29.40
2018-04-24T16:35:31.814Z,28.80
2018-04-24T16:37:59.263Z,27.70
2018-04-24T16:40:26.723Z,26.50
2018-04-24T16:42:54.202Z,25.40
2018-04-24T16:45:21.649Z,24.50
2018-04-24T16:47:49.115Z,23.80
2018-04-24T16:50:16.570Z,23.20
2018-04-24T16:52:44.035Z,22.60
2018-04-24T16:55:11.479Z,22.20
2018-04-24T16:57:38.949Z,21.90
2018-04-24T17:00:06.490Z,21.50
2018-04-24T17:02:33.949Z,21.20
2018-04-24T17:05:01.408Z,20.90
2018-04-24T17:07:28.863Z,20.80
2018-04-24T17:09:56.333Z,20.50
2018-04-24T17:12:23.924Z,20.40
2018-04-24T17:14:51.387Z,20.20
2018-04-24T17:17:18.827Z,20.00
2018-04-24T17:19:46.294Z,19.80
2018-04-24T17:22:13.746Z,19.70
2018-04-24T17:24:41.193Z,19.60
2018-04-24T17:27:08.704Z,19.40
2018-04-24T17:29:37.001Z,19.20
2018-04-24T17:32:10.321Z,19.10
2018-04-24T17:34:37.771Z,19.00
2018-04-24T17:37:05.249Z,19.00
2018-04-24T17:39:32.688Z,18.80
2018-04-24T17:42:00.136Z,18.70
2018-04-24T17:44:27.566Z,18.60
2018-04-24T17:46:55.004Z,18.50
2018-04-24T17:49:23.247Z,18.40
2018-04-24T17:51:51.434Z,18.30
2018-04-24T17:54:18.871Z,18.20
2018-04-24T17:57:05.536Z,18.00
2018-04-24T17:59:32.889Z,18.00
2018-04-24T18:02:00.325Z,17.80
2018-04-24T18:04:27.847Z,17.60
2018-04-24T18:06:55.353Z,17.50
2018-04-24T18:09:22.822Z,17.30
2018-04-24T18:11:51.230Z,17.20
2018-04-24T18:14:18.678Z,17.00
2018-04-24T18:16:46.118Z,16.90
2018-04-24T18:19:13.566Z,16.80
2018-04-24T18:21:40.995Z,16.60
2018-04-24T18:24:08.441Z,16.50
2018-04-24T18:26:35.874Z,16.40
2018-04-24T18:29:04.071Z,16.10
2018-04-24T18:31:31.527Z,16.10
2018-04-24T18:33:58.970Z,16.00
2018-04-24T18:36:27.175Z,15.90
2018-04-24T18:38:54.631Z,15.80
2018-04-24T18:41:22.060Z,15.70
2018-04-24T18:43:50.276Z,15.40
2018-04-24T18:46:17.702Z,15.40
2018-04-24T18:48:45.130Z,15.30
2018-04-24T18:51:13.330Z,15.00
2018-04-24T18:53:40.783Z,15.00
2018-04-24T18:56:08.424Z,14.90
2018-04-24T18:58:37.355Z,14.70
2018-04-24T19:01:05.343Z,14.50
2018-04-24T19:03:32.798Z,14.40
2018-04-24T19:06:00.237Z,14.30
2018-04-24T19:08:27.689Z,14.20
2018-04-24T19:10:55.181Z,14.10
2018-04-24T19:13:22.678Z,14.00
2018-04-24T19:15:50.152Z,13.90
2018-04-24T19:18:17.587Z,13.90
2018-04-24T19:20:45.040Z,13.80
2018-04-24T19:23:12.513Z,13.80
2018-04-24T19:25:42.896Z,13.80
2018-04-24T19:28:11.097Z,13.70
2018-04-24T19:30:38.570Z,13.60
2018-04-24T19:33:06.023Z,13.60
2018-04-24T19:35:33.489Z,13.60
2018-04-24T19:38:01.011Z,13.60
2018-04-24T19:40:34.220Z,13.50
2018-04-24T19:43:02.191Z,13.50
2018-04-24T19:45:30.160Z,13.50
2018-04-24T19:47:57.708Z,13.50
2018-04-24T19:50:25.907Z,13.50
2018-04-24T19:52:53.372Z,13.40
2018-04-24T19:55:25.817Z,13.40
2018-04-24T19:57:53.286Z,13.30
2018-04-24T20:00:20.775Z,13.30
2018-04-24T20:02:48.236Z,13.20
2018-04-24T20:05:16.465Z,12.90
2018-04-24T20:07:43.920Z,12.90
2018-04-24T20:10:11.394Z,12.80
2018-04-24T20:12:38.901Z,12.70
2018-04-24T20:15:06.353Z,12.70
2018-04-24T20:17:33.864Z,12.60
2018-04-24T20:20:01.337Z,12.60
2018-04-24T20:22:29.571Z,12.50
2018-04-24T20:24:57.023Z,12.50
2018-04-24T20:27:24.481Z,12.40
2018-04-24T20:29:51.939Z,12.40
2018-04-24T20:32:19.447Z,12.40
2018-04-24T20:34:46.875Z,12.40
2018-04-24T20:37:14.333Z,12.30
2018-04-24T20:39:41.785Z,12.30
2018-04-24T20:42:09.992Z,12.10
2018-04-24T20:44:37.448Z,12.10
2018-04-24T20:47:04.897Z,12.00
2018-04-24T20:49:32.375Z,12.00
2018-04-24T20:51:59.844Z,11.80
2018-04-24T20:54:27.332Z,11.70
2018-04-24T20:56:54.786Z,11.70
2018-04-24T20:59:22.238Z,11.70
2018-04-24T21:01:49.700Z,11.70
2018-04-24T21:04:17.917Z,11.60
2018-04-24T21:06:45.676Z,11.50
2018-04-24T21:09:13.130Z,11.50
2018-04-24T21:11:40.590Z,11.40
2018-04-24T21:14:08.032Z,11.40
2018-04-24T21:16:35.491Z,11.30
2018-04-24T21:19:02.950Z,11.20
2018-04-24T21:21:30.425Z,11.10
2018-04-24T21:23:57.879Z,11.00
2018-04-24T21:26:25.334Z,10.90
2018-04-24T21:28:52.803Z,10.80
2018-04-24T21:31:20.257Z,10.70
2018-04-24T21:33:47.709Z,10.60
2018-04-24T21:36:15.169Z,10.50
2018-04-24T21:38:42.638Z,10.40
2018-04-24T21:41:10.101Z,10.40
2018-04-24T21:43:37.569Z,10.30
2018-04-24T21:46:05.813Z,10.20
2018-04-24T21:48:33.241Z,10.10
2018-04-24T21:51:00.724Z,10.10
2018-04-24T21:53:28.161Z,10.00
2018-04-24T21:55:55.615Z,10.00
2018-04-24T21:58:23.858Z,9.90
2018-04-24T22:00:51.308Z,9.90
2018-04-24T22:03:18.776Z,9.90
2018-04-24T22:05:46.223Z,9.80
2018-04-24T22:08:13.668Z,9.80
2018-04-24T22:10:41.135Z,9.70
2018-04-24T22:13:08.568Z,9.70
2018-04-24T22:15:36.793Z,9.60
2018-04-24T22:18:04.226Z,9.60
2018-04-24T22:20:31.684Z,9.60
2018-04-24T22:22:59.143Z,9.60
2018-04-24T22:25:26.591Z,9.60
2018-04-24T22:27:54.055Z,9.50
2018-04-24T22:30:21.504Z,9.50
2018-04-24T22:32:48.982Z,9.50
2018-04-24T22:35:16.443Z,9.50
2018-04-24T22:37:43.893Z,9.40
2018-04-24T22:40:11.357Z,9.40
2018-04-24T22:42:38.802Z,9.40
2018-04-24T22:45:06.246Z,9.30
2018-04-24T22:47:33.698Z,9.30
2018-04-24T22:50:01.186Z,9.30
2018-04-24T22:52:28.641Z,9.30
2018-04-24T22:54:56.074Z,9.20
2018-04-24T22:57:23.529Z,9.20
2018-04-24T22:59:50.971Z,9.10
2018-04-24T23:02:18.506Z,9.10
2018-04-24T23:04:45.944Z,9.10
2018-04-24T23:07:13.404Z,9.10
2018-04-24T23:09:53.396Z,9.10
2018-04-24T23:12:32.885Z,9.10
2018-04-24T23:15:12.314Z,9.10
2018-04-24T23:17:52.509Z,9.10
2018-04-24T23:20:19.485Z,9.00
2018-04-24T23:22:46.930Z,9.00
2018-04-24T23:25:14.393Z,8.90
2018-04-24T23:27:41.849Z,8.90
2018-04-24T23:30:09.310Z,8.90
2018-04-24T23:32:36.750Z,8.80
2018-04-24T23:35:04.227Z,8.80
2018-04-24T23:37:31.651Z,8.70
2018-04-24T23:39:59.091Z,8.60
2018-04-24T23:42:26.547Z,8.60
2018-04-24T23:44:54.019Z,8.50
2018-04-24T23:47:21.517Z,8.40
2018-04-24T23:49:49.001Z,8.30
2018-04-24T23:52:16.443Z,8.30
2018-04-24T23:54:43.881Z,8.20
2018-04-24T23:57:12.109Z,8.20
2018-04-24T23:59:39.551Z,8.20
